sensor_id;sensor_type;location;lat;lon;timestamp;P1;durP1;ratioP1;P2;durP2;ratioP2
15952;SDS011;8075;47.766;8.846;2022-07-24T00:00:31;8.50;;;7.95;;
15952;SDS011;8075;47.766;8.846;2022-07-24T00:02:57;8.50;;;7.90;;
15952;SDS011;8075;47.766;8.846;2022-07-24T00:05:23;8.77;;;8.07;;
15952;SDS011;8075;47.766;8.846;2022-07-24T00:07:49;8.52;;;7.93;;
15952;SDS011;8075;47.766;8.846;2022-07-24T00:10:15;8.35;;;7.75;;
15952;SDS011;8075;47.766;8.846;2022-07-24T00:12:41;8.10;;;7.60;;
15952;SDS011;8075;47.766;8.846;2022-07-24T00:15:07;9.03;;;8.33;;
15952;SDS011;8075;47.766;8.846;2022-07-24T00:17:33;8.55;;;7.90;;
15952;SDS011;8075;47.766;8.846;2022-07-24T00:19:59;8.75;;;8.05;;
15952;SDS011;8075;47.766;8.846;2022-07-24T00:22:25;9.00;;;8.30;;
15952;SDS011;8075;47.766;8.846;2022-07-24T00:24:51;8.02;;;7.50;;
15952;SDS011;8075;47.766;8.846;2022-07-24T00:27:17;8.63;;;7.88;;
15952;SDS011;8075;47.766;8.846;2022-07-24T00:29:43;9.10;;;8.30;;
15952;SDS011;8075;47.766;8.846;2022-07-24T00:32:09;8.30;;;7.70;;
15952;SDS011;8075;47.766;8.846;2022-07-24T00:34:35;8.70;;;8.10;;
15952;SDS011;8075;47.766;8.846;2022-07-24T00:37:01;8.38;;;7.68;;
15952;SDS011;8075;47.766;8.846;2022-07-24T00:39:27;8.55;;;7.95;;
15952;SDS011;8075;47.766;8.846;2022-07-24T00:41:53;8.63;;;7.93;;
15952;SDS011;8075;47.766;8.846;2022-07-24T00:44:19;8.70;;;8.10;;
15952;SDS011;8075;47.766;8.846;2022-07-24T00:46:46;8.30;;;7.70;;
15952;SDS011;8075;47.766;8.846;2022-07-24T00:49:14;8.55;;;7.88;;
15952;SDS011;8075;47.766;8.846;2022-07-24T00:51:41;9.07;;;8.38;;
15952;SDS011;8075;47.766;8.846;2022-07-24T00:54:08;8.80;;;8.20;;
15952;SDS011;8075;47.766;8.846;2022-07-24T00:56:34;8.32;;;7.65;;
15952;SDS011;8075;47.766;8.846;2022-07-24T00:59:01;8.20;;;7.60;;
15952;SDS011;8075;47.766;8.846;2022-07-24T01:01:27;9.00;;;8.30;;
15952;SDS011;8075;47.766;8.846;2022-07-24T01:03:53;8.85;;;8.25;;
15952;SDS011;8075;47.766;8.846;2022-07-24T01:06:19;9.10;;;8.40;;
15952;SDS011;8075;47.766;8.846;2022-07-24T01:08:45;8.93;;;8.13;;
15952;SDS011;8075;47.766;8.846;2022-07-24T01:11:12;8.45;;;7.75;;
15952;SDS011;8075;47.766;8.846;2022-07-24T01:13:38;8.70;;;8.05;;
15952;SDS011;8075;47.766;8.846;2022-07-24T01:16:05;8.48;;;7.80;;
15952;SDS011;8075;47.766;8.846;2022-07-24T01:18:31;8.38;;;7.72;;
15952;SDS011;8075;47.766;8.846;2022-07-24T01:20:57;8.38;;;7.80;;
15952;SDS011;8075;47.766;8.846;2022-07-24T01:23:23;8.25;;;7.72;;
15952;SDS011;8075;47.766;8.846;2022-07-24T01:25:50;8.73;;;8.13;;
15952;SDS011;8075;47.766;8.846;2022-07-24T01:28:16;8.80;;;8.20;;
15952;SDS011;8075;47.766;8.846;2022-07-24T01:30:42;8.50;;;7.80;;
15952;SDS011;8075;47.766;8.846;2022-07-24T01:33:08;8.60;;;7.97;;
15952;SDS011;8075;47.766;8.846;2022-07-24T01:35:34;8.30;;;7.70;;
15952;SDS011;8075;47.766;8.846;2022-07-24T01:38:00;8.50;;;7.90;;
15952;SDS011;8075;47.766;8.846;2022-07-24T01:40:26;8.40;;;7.70;;
15952;SDS011;8075;47.766;8.846;2022-07-24T01:42:52;8.88;;;8.10;;
15952;SDS011;8075;47.766;8.846;2022-07-24T01:45:19;7.97;;;7.40;;
15952;SDS011;8075;47.766;8.846;2022-07-24T01:47:45;8.90;;;8.10;;
15952;SDS011;8075;47.766;8.846;2022-07-24T01:50:11;8.63;;;8.02;;
15952;SDS011;8075;47.766;8.846;2022-07-24T01:52:37;8.55;;;7.80;;
15952;SDS011;8075;47.766;8.846;2022-07-24T01:55:04;8.97;;;8.17;;
15952;SDS011;8075;47.766;8.846;2022-07-24T01:57:30;8.35;;;7.75;;
15952;SDS011;8075;47.766;8.846;2022-07-24T01:59:57;8.68;;;8.02;;
15952;SDS011;8075;47.766;8.846;2022-07-24T02:02:23;8.70;;;8.00;;
15952;SDS011;8075;47.766;8.846;2022-07-24T02:04:49;8.55;;;7.95;;
15952;SDS011;8075;47.766;8.846;2022-07-24T02:07:15;8.35;;;7.72;;
15952;SDS011;8075;47.766;8.846;2022-07-24T02:09:41;8.38;;;7.70;;
15952;SDS011;8075;47.766;8.846;2022-07-24T02:12:07;8.13;;;7.53;;
15952;SDS011;8075;47.766;8.846;2022-07-24T02:14:34;8.50;;;7.90;;
15952;SDS011;8075;47.766;8.846;2022-07-24T02:17:00;9.13;;;8.50;;
15952;SDS011;8075;47.766;8.846;2022-07-24T02:19:26;8.35;;;7.65;;
15952;SDS011;8075;47.766;8.846;2022-07-24T02:21:52;8.70;;;8.05;;
15952;SDS011;8075;47.766;8.846;2022-07-24T02:24:18;8.70;;;8.02;;
15952;SDS011;8075;47.766;8.846;2022-07-24T02:26:44;8.90;;;8.20;;
15952;SDS011;8075;47.766;8.846;2022-07-24T02:29:10;8.35;;;7.65;;
15952;SDS011;8075;47.766;8.846;2022-07-24T02:31:36;8.43;;;7.80;;
15952;SDS011;8075;47.766;8.846;2022-07-24T02:34:02;9.10;;;8.13;;
15952;SDS011;8075;47.766;8.846;2022-07-24T02:36:28;8.75;;;7.95;;
15952;SDS011;8075;47.766;8.846;2022-07-24T02:38:54;8.93;;;8.23;;
15952;SDS011;8075;47.766;8.846;2022-07-24T02:41:20;8.90;;;8.20;;
15952;SDS011;8075;47.766;8.846;2022-07-24T02:43:46;8.45;;;7.75;;
15952;SDS011;8075;47.766;8.846;2022-07-24T02:46:12;9.27;;;8.48;;
15952;SDS011;8075;47.766;8.846;2022-07-24T02:48:38;8.65;;;8.05;;
15952;SDS011;8075;47.766;8.846;2022-07-24T02:51:04;9.00;;;8.40;;
15952;SDS011;8075;47.766;8.846;2022-07-24T02:53:30;9.18;;;8.57;;
15952;SDS011;8075;47.766;8.846;2022-07-24T02:55:56;9.45;;;8.75;;
15952;SDS011;8075;47.766;8.846;2022-07-24T02:58:23;9.02;;;8.23;;
15952;SDS011;8075;47.766;8.846;2022-07-24T03:00:49;9.60;;;8.88;;
15952;SDS011;8075;47.766;8.846;2022-07-24T03:03:15;9.27;;;8.65;;
15952;SDS011;8075;47.766;8.846;2022-07-24T03:05:41;9.25;;;8.52;;
15952;SDS011;8075;47.766;8.846;2022-07-24T03:08:07;9.15;;;8.50;;
15952;SDS011;8075;47.766;8.846;2022-07-24T03:10:33;9.10;;;8.50;;
15952;SDS011;8075;47.766;8.846;2022-07-24T03:12:59;8.85;;;8.15;;
15952;SDS011;8075;47.766;8.846;2022-07-24T03:15:25;9.40;;;8.63;;
15952;SDS011;8075;47.766;8.846;2022-07-24T03:17:52;9.25;;;8.65;;
15952;SDS011;8075;47.766;8.846;2022-07-24T03:20:19;9.43;;;8.73;;
15952;SDS011;8075;47.766;8.846;2022-07-24T03:22:45;9.40;;;8.60;;
15952;SDS011;8075;47.766;8.846;2022-07-24T03:25:11;9.10;;;8.40;;
15952;SDS011;8075;47.766;8.846;2022-07-24T03:27:37;9.73;;;9.02;;
15952;SDS011;8075;47.766;8.846;2022-07-24T03:30:04;9.27;;;8.57;;
15952;SDS011;8075;47.766;8.846;2022-07-24T03:32:30;9.15;;;8.43;;
15952;SDS011;8075;47.766;8.846;2022-07-24T03:34:56;9.20;;;8.40;;
15952;SDS011;8075;47.766;8.846;2022-07-24T03:37:22;9.20;;;8.40;;
15952;SDS011;8075;47.766;8.846;2022-07-24T03:39:48;9.20;;;8.40;;
15952;SDS011;8075;47.766;8.846;2022-07-24T03:42:14;9.67;;;8.80;;
15952;SDS011;8075;47.766;8.846;2022-07-24T03:44:40;8.82;;;8.13;;
15952;SDS011;8075;47.766;8.846;2022-07-24T03:47:06;8.85;;;8.07;;
15952;SDS011;8075;47.766;8.846;2022-07-24T03:49:32;8.77;;;8.15;;
15952;SDS011;8075;47.766;8.846;2022-07-24T03:51:59;9.25;;;8.45;;
15952;SDS011;8075;47.766;8.846;2022-07-24T03:54:25;9.05;;;8.45;;
15952;SDS011;8075;47.766;8.846;2022-07-24T03:56:51;9.10;;;8.40;;
15952;SDS011;8075;47.766;8.846;2022-07-24T03:59:17;8.75;;;8.15;;
15952;SDS011;8075;47.766;8.846;2022-07-24T04:01:44;9.10;;;8.40;;
15952;SDS011;8075;47.766;8.846;2022-07-24T04:04:10;9.25;;;8.45;;
15952;SDS011;8075;47.766;8.846;2022-07-24T04:06:36;9.50;;;8.63;;
15952;SDS011;8075;47.766;8.846;2022-07-24T04:09:03;9.68;;;8.90;;
15952;SDS011;8075;47.766;8.846;2022-07-24T04:11:29;9.30;;;8.60;;
15952;SDS011;8075;47.766;8.846;2022-07-24T04:13:55;8.98;;;8.35;;
15952;SDS011;8075;47.766;8.846;2022-07-24T04:16:21;10.82;;;8.70;;
15952;SDS011;8075;47.766;8.846;2022-07-24T04:18:47;8.98;;;8.20;;
15952;SDS011;8075;47.766;8.846;2022-07-24T04:21:13;9.15;;;8.25;;
15952;SDS011;8075;47.766;8.846;2022-07-24T04:23:39;8.80;;;8.10;;
15952;SDS011;8075;47.766;8.846;2022-07-24T04:26:06;8.97;;;8.17;;
15952;SDS011;8075;47.766;8.846;2022-07-24T04:28:32;9.30;;;8.60;;
15952;SDS011;8075;47.766;8.846;2022-07-24T04:30:58;8.95;;;8.25;;
15952;SDS011;8075;47.766;8.846;2022-07-24T04:33:24;9.37;;;8.47;;
15952;SDS011;8075;47.766;8.846;2022-07-24T04:35:50;8.73;;;8.13;;
15952;SDS011;8075;47.766;8.846;2022-07-24T04:38:16;8.63;;;7.97;;
15952;SDS011;8075;47.766;8.846;2022-07-24T04:40:42;9.65;;;8.85;;
15952;SDS011;8075;47.766;8.846;2022-07-24T04:43:09;8.67;;;8.13;;
15952;SDS011;8075;47.766;8.846;2022-07-24T04:45:35;9.13;;;8.38;;
15952;SDS011;8075;47.766;8.846;2022-07-24T04:48:01;9.27;;;8.48;;
15952;SDS011;8075;47.766;8.846;2022-07-24T04:50:27;8.77;;;8.13;;
15952;SDS011;8075;47.766;8.846;2022-07-24T04:52:53;9.10;;;8.43;;
15952;SDS011;8075;47.766;8.846;2022-07-24T04:55:20;8.67;;;8.03;;
15952;SDS011;8075;47.766;8.846;2022-07-24T04:57:46;8.93;;;8.23;;
15952;SDS011;8075;47.766;8.846;2022-07-24T05:00:12;8.35;;;7.75;;
15952;SDS011;8075;47.766;8.846;2022-07-24T05:02:38;8.55;;;7.95;;
15952;SDS011;8075;47.766;8.846;2022-07-24T05:05:05;8.70;;;8.00;;
15952;SDS011;8075;47.766;8.846;2022-07-24T05:07:31;8.40;;;7.80;;
15952;SDS011;8075;47.766;8.846;2022-07-24T05:09:57;8.25;;;7.65;;
15952;SDS011;8075;47.766;8.846;2022-07-24T05:12:24;8.68;;;8.00;;
15952;SDS011;8075;47.766;8.846;2022-07-24T05:14:50;8.65;;;8.05;;
15952;SDS011;8075;47.766;8.846;2022-07-24T05:17:16;8.50;;;7.80;;
15952;SDS011;8075;47.766;8.846;2022-07-24T05:19:42;8.30;;;7.60;;
15952;SDS011;8075;47.766;8.846;2022-07-24T05:22:08;8.80;;;8.20;;
15952;SDS011;8075;47.766;8.846;2022-07-24T05:24:34;8.70;;;8.00;;
15952;SDS011;8075;47.766;8.846;2022-07-24T05:27:00;8.48;;;7.88;;
15952;SDS011;8075;47.766;8.846;2022-07-24T05:29:26;8.63;;;7.93;;
15952;SDS011;8075;47.766;8.846;2022-07-24T05:31:52;8.20;;;7.53;;
15952;SDS011;8075;47.766;8.846;2022-07-24T05:34:19;8.23;;;7.70;;
15952;SDS011;8075;47.766;8.846;2022-07-24T05:36:45;8.95;;;8.18;;
15952;SDS011;8075;47.766;8.846;2022-07-24T05:39:11;8.10;;;7.55;;
15952;SDS011;8075;47.766;8.846;2022-07-24T05:41:37;8.15;;;7.55;;
15952;SDS011;8075;47.766;8.846;2022-07-24T05:44:04;8.50;;;7.90;;
15952;SDS011;8075;47.766;8.846;2022-07-24T05:46:30;8.40;;;7.80;;
15952;SDS011;8075;47.766;8.846;2022-07-24T05:48:56;8.00;;;7.40;;
15952;SDS011;8075;47.766;8.846;2022-07-24T05:51:22;8.33;;;7.63;;
15952;SDS011;8075;47.766;8.846;2022-07-24T05:53:48;8.15;;;7.55;;
15952;SDS011;8075;47.766;8.846;2022-07-24T05:56:14;7.95;;;7.32;;
15952;SDS011;8075;47.766;8.846;2022-07-24T05:58:40;8.23;;;7.63;;
15952;SDS011;8075;47.766;8.846;2022-07-24T06:01:06;8.55;;;7.75;;
15952;SDS011;8075;47.766;8.846;2022-07-24T06:03:32;7.57;;;6.97;;
15952;SDS011;8075;47.766;8.846;2022-07-24T06:05:58;7.68;;;7.15;;
15952;SDS011;8075;47.766;8.846;2022-07-24T06:08:24;7.47;;;6.95;;
15952;SDS011;8075;47.766;8.846;2022-07-24T06:10:50;7.60;;;7.10;;
15952;SDS011;8075;47.766;8.846;2022-07-24T06:13:16;7.82;;;7.13;;
15952;SDS011;8075;47.766;8.846;2022-07-24T06:15:42;8.15;;;7.35;;
15952;SDS011;8075;47.766;8.846;2022-07-24T06:18:08;7.80;;;7.20;;
15952;SDS011;8075;47.766;8.846;2022-07-24T06:20:34;7.32;;;6.72;;
15952;SDS011;8075;47.766;8.846;2022-07-24T06:23:00;7.38;;;6.88;;
15952;SDS011;8075;47.766;8.846;2022-07-24T06:25:26;7.78;;;7.18;;
15952;SDS011;8075;47.766;8.846;2022-07-24T06:27:52;8.07;;;7.47;;
15952;SDS011;8075;47.766;8.846;2022-07-24T06:30:20;7.53;;;6.93;;
15952;SDS011;8075;47.766;8.846;2022-07-24T06:32:51;7.72;;;7.20;;
15952;SDS011;8075;47.766;8.846;2022-07-24T06:35:18;7.60;;;7.00;;
15952;SDS011;8075;47.766;8.846;2022-07-24T06:37:44;8.63;;;8.00;;
15952;SDS011;8075;47.766;8.846;2022-07-24T06:40:10;8.60;;;7.75;;
15952;SDS011;8075;47.766;8.846;2022-07-24T06:42:36;8.48;;;7.82;;
15952;SDS011;8075;47.766;8.846;2022-07-24T06:45:02;8.40;;;7.80;;
15952;SDS011;8075;47.766;8.846;2022-07-24T06:47:29;8.30;;;7.70;;
15952;SDS011;8075;47.766;8.846;2022-07-24T06:49:55;8.10;;;7.60;;
15952;SDS011;8075;47.766;8.846;2022-07-24T06:52:21;8.32;;;7.72;;
15952;SDS011;8075;47.766;8.846;2022-07-24T06:54:47;8.95;;;8.30;;
15952;SDS011;8075;47.766;8.846;2022-07-24T06:57:13;8.73;;;7.67;;
15952;SDS011;8075;47.766;8.846;2022-07-24T06:59:40;9.38;;;8.68;;
15952;SDS011;8075;47.766;8.846;2022-07-24T07:02:06;9.20;;;8.50;;
15952;SDS011;8075;47.766;8.846;2022-07-24T07:04:32;9.10;;;8.40;;
15952;SDS011;8075;47.766;8.846;2022-07-24T07:06:58;9.03;;;8.33;;
15952;SDS011;8075;47.766;8.846;2022-07-24T07:09:24;8.53;;;7.93;;
15952;SDS011;8075;47.766;8.846;2022-07-24T07:11:50;9.38;;;8.68;;
15952;SDS011;8075;47.766;8.846;2022-07-24T07:14:16;8.90;;;8.20;;
15952;SDS011;8075;47.766;8.846;2022-07-24T07:16:42;8.85;;;8.15;;
15952;SDS011;8075;47.766;8.846;2022-07-24T07:19:08;8.98;;;8.38;;
15952;SDS011;8075;47.766;8.846;2022-07-24T07:21:34;8.30;;;7.80;;
15952;SDS011;8075;47.766;8.846;2022-07-24T07:24:01;8.55;;;7.85;;
15952;SDS011;8075;47.766;8.846;2022-07-24T07:26:27;9.50;;;8.80;;
15952;SDS011;8075;47.766;8.846;2022-07-24T07:28:53;8.40;;;7.70;;
15952;SDS011;8075;47.766;8.846;2022-07-24T07:31:19;8.55;;;7.95;;
15952;SDS011;8075;47.766;8.846;2022-07-24T07:33:46;9.02;;;8.32;;
15952;SDS011;8075;47.766;8.846;2022-07-24T07:36:12;8.65;;;8.05;;
15952;SDS011;8075;47.766;8.846;2022-07-24T07:38:38;9.45;;;8.65;;
15952;SDS011;8075;47.766;8.846;2022-07-24T07:41:05;8.98;;;8.27;;
15952;SDS011;8075;47.766;8.846;2022-07-24T07:43:31;9.93;;;8.80;;
15952;SDS011;8075;47.766;8.846;2022-07-24T07:45:57;9.07;;;8.48;;
15952;SDS011;8075;47.766;8.846;2022-07-24T07:48:23;9.07;;;8.38;;
15952;SDS011;8075;47.766;8.846;2022-07-24T07:50:49;9.00;;;8.30;;
15952;SDS011;8075;47.766;8.846;2022-07-24T07:53:15;9.00;;;8.30;;
15952;SDS011;8075;47.766;8.846;2022-07-24T07:55:41;9.18;;;8.48;;
15952;SDS011;8075;47.766;8.846;2022-07-24T07:58:08;9.25;;;8.45;;
15952;SDS011;8075;47.766;8.846;2022-07-24T08:00:34;9.48;;;8.77;;
15952;SDS011;8075;47.766;8.846;2022-07-24T08:03:01;9.50;;;8.70;;
15952;SDS011;8075;47.766;8.846;2022-07-24T08:05:27;9.05;;;8.35;;
15952;SDS011;8075;47.766;8.846;2022-07-24T08:07:53;9.57;;;8.88;;
15952;SDS011;8075;47.766;8.846;2022-07-24T08:10:19;9.32;;;8.55;;
15952;SDS011;8075;47.766;8.846;2022-07-24T08:12:45;9.70;;;8.80;;
15952;SDS011;8075;47.766;8.846;2022-07-24T08:15:11;8.93;;;8.23;;
15952;SDS011;8075;47.766;8.846;2022-07-24T08:17:37;7.80;;;7.20;;
15952;SDS011;8075;47.766;8.846;2022-07-24T08:20:03;7.65;;;7.05;;
15952;SDS011;8075;47.766;8.846;2022-07-24T08:22:29;8.00;;;7.40;;
15952;SDS011;8075;47.766;8.846;2022-07-24T08:24:55;8.00;;;7.50;;
15952;SDS011;8075;47.766;8.846;2022-07-24T08:27:21;7.72;;;7.20;;
15952;SDS011;8075;47.766;8.846;2022-07-24T08:29:47;8.38;;;7.82;;
15952;SDS011;8075;47.766;8.846;2022-07-24T08:32:13;8.40;;;7.70;;
15952;SDS011;8075;47.766;8.846;2022-07-24T08:34:39;8.40;;;7.70;;
15952;SDS011;8075;47.766;8.846;2022-07-24T08:37:05;8.32;;;7.72;;
15952;SDS011;8075;47.766;8.846;2022-07-24T08:39:31;7.57;;;7.07;;
15952;SDS011;8075;47.766;8.846;2022-07-24T08:41:58;7.90;;;7.30;;
15952;SDS011;8075;47.766;8.846;2022-07-24T08:44:24;7.28;;;6.85;;
15952;SDS011;8075;47.766;8.846;2022-07-24T08:46:50;7.70;;;7.07;;
15952;SDS011;8075;47.766;8.846;2022-07-24T08:49:18;8.15;;;7.50;;
15952;SDS011;8075;47.766;8.846;2022-07-24T08:51:45;7.37;;;6.87;;
15952;SDS011;8075;47.766;8.846;2022-07-24T08:54:11;7.43;;;6.80;;
15952;SDS011;8075;47.766;8.846;2022-07-24T08:56:38;7.60;;;7.10;;
15952;SDS011;8075;47.766;8.846;2022-07-24T08:59:04;7.60;;;7.10;;
15952;SDS011;8075;47.766;8.846;2022-07-24T09:01:30;7.50;;;6.87;;
15952;SDS011;8075;47.766;8.846;2022-07-24T09:03:57;7.25;;;6.75;;
15952;SDS011;8075;47.766;8.846;2022-07-24T09:06:23;7.45;;;6.85;;
15952;SDS011;8075;47.766;8.846;2022-07-24T09:09:02;7.53;;;6.93;;
15952;SDS011;8075;47.766;8.846;2022-07-24T09:11:28;7.25;;;6.75;;
15952;SDS011;8075;47.766;8.846;2022-07-24T09:13:59;7.30;;;6.72;;
15952;SDS011;8075;47.766;8.846;2022-07-24T09:16:43;7.30;;;6.80;;
15952;SDS011;8075;47.766;8.846;2022-07-24T09:19:10;7.15;;;6.65;;
15952;SDS011;8075;47.766;8.846;2022-07-24T09:21:38;7.30;;;6.80;;
15952;SDS011;8075;47.766;8.846;2022-07-24T09:24:17;7.15;;;6.55;;
15952;SDS011;8075;47.766;8.846;2022-07-24T09:26:47;7.22;;;6.68;;
15952;SDS011;8075;47.766;8.846;2022-07-24T09:29:14;6.90;;;6.43;;
15952;SDS011;8075;47.766;8.846;2022-07-24T09:31:50;7.53;;;6.93;;
15952;SDS011;8075;47.766;8.846;2022-07-24T09:34:16;7.30;;;6.70;;
15952;SDS011;8075;47.766;8.846;2022-07-24T09:36:50;6.95;;;6.45;;
15952;SDS011;8075;47.766;8.846;2022-07-24T09:39:20;7.25;;;6.75;;
15952;SDS011;8075;47.766;8.846;2022-07-24T09:41:52;7.40;;;6.80;;
15952;SDS011;8075;47.766;8.846;2022-07-24T09:44:19;6.90;;;6.40;;
15952;SDS011;8075;47.766;8.846;2022-07-24T09:46:46;6.75;;;6.30;;
15952;SDS011;8075;47.766;8.846;2022-07-24T09:49:18;7.13;;;6.63;;
15952;SDS011;8075;47.766;8.846;2022-07-24T09:57:20;7.22;;;6.80;;
15952;SDS011;8075;47.766;8.846;2022-07-24T10:02:14;6.90;;;6.50;;
15952;SDS011;8075;47.766;8.846;2022-07-24T10:04:41;6.97;;;6.47;;
15952;SDS011;8075;47.766;8.846;2022-07-24T10:07:09;6.70;;;6.30;;
15952;SDS011;8075;47.766;8.846;2022-07-24T10:09:35;7.25;;;6.65;;
15952;SDS011;8075;47.766;8.846;2022-07-24T10:12:02;6.82;;;6.30;;
15952;SDS011;8075;47.766;8.846;2022-07-24T10:14:29;7.05;;;6.55;;
15952;SDS011;8075;47.766;8.846;2022-07-24T10:17:06;6.63;;;6.20;;
15952;SDS011;8075;47.766;8.846;2022-07-24T10:19:42;7.28;;;6.70;;
15952;SDS011;8075;47.766;8.846;2022-07-24T10:22:14;6.87;;;6.37;;
15952;SDS011;8075;47.766;8.846;2022-07-24T10:27:14;6.68;;;6.28;;
15952;SDS011;8075;47.766;8.846;2022-07-24T10:29:45;7.60;;;7.00;;
15952;SDS011;8075;47.766;8.846;2022-07-24T10:32:12;7.53;;;6.93;;
15952;SDS011;8075;47.766;8.846;2022-07-24T10:34:49;6.43;;;5.93;;
15952;SDS011;8075;47.766;8.846;2022-07-24T10:42:30;7.13;;;6.63;;
15952;SDS011;8075;47.766;8.846;2022-07-24T10:45:12;7.38;;;6.88;;
15952;SDS011;8075;47.766;8.846;2022-07-24T10:47:38;7.47;;;6.88;;
15952;SDS011;8075;47.766;8.846;2022-07-24T10:50:04;7.35;;;6.65;;
15952;SDS011;8075;47.766;8.846;2022-07-24T10:52:31;7.43;;;6.80;;
15952;SDS011;8075;47.766;8.846;2022-07-24T11:02:54;7.13;;;6.63;;
15952;SDS011;8075;47.766;8.846;2022-07-24T11:05:25;6.85;;;6.35;;
15952;SDS011;8075;47.766;8.846;2022-07-24T11:10:45;5.63;;;5.30;;
15952;SDS011;8075;47.766;8.846;2022-07-24T11:13:46;6.60;;;6.20;;
15952;SDS011;8075;47.766;8.846;2022-07-24T11:18:42;6.10;;;5.70;;
15952;SDS011;8075;47.766;8.846;2022-07-24T11:21:08;6.40;;;6.00;;
15952;SDS011;8075;47.766;8.846;2022-07-24T11:23:34;6.70;;;6.23;;
15952;SDS011;8075;47.766;8.846;2022-07-24T11:31:31;6.07;;;5.65;;
15952;SDS011;8075;47.766;8.846;2022-07-24T11:33:58;6.60;;;6.10;;
15952;SDS011;8075;47.766;8.846;2022-07-24T11:36:25;9.63;;;8.83;;
15952;SDS011;8075;47.766;8.846;2022-07-24T11:38:51;6.53;;;5.93;;
15952;SDS011;8075;47.766;8.846;2022-07-24T11:41:18;6.20;;;5.80;;
15952;SDS011;8075;47.766;8.846;2022-07-24T11:43:52;6.63;;;6.13;;
15952;SDS011;8075;47.766;8.846;2022-07-24T11:46:34;6.72;;;6.22;;
15952;SDS011;8075;47.766;8.846;2022-07-24T11:49:03;6.90;;;6.28;;
15952;SDS011;8075;47.766;8.846;2022-07-24T11:51:30;6.63;;;6.13;;
15952;SDS011;8075;47.766;8.846;2022-07-24T11:53:56;7.33;;;6.80;;
15952;SDS011;8075;47.766;8.846;2022-07-24T11:56:22;8.68;;;8.00;;
15952;SDS011;8075;47.766;8.846;2022-07-24T11:58:48;7.05;;;6.45;;
15952;SDS011;8075;47.766;8.846;2022-07-24T12:01:21;6.40;;;6.00;;
15952;SDS011;8075;47.766;8.846;2022-07-24T12:03:57;6.13;;;5.72;;
15952;SDS011;8075;47.766;8.846;2022-07-24T12:06:23;6.40;;;5.80;;
15952;SDS011;8075;47.766;8.846;2022-07-24T12:08:49;6.00;;;5.60;;
15952;SDS011;8075;47.766;8.846;2022-07-24T12:11:19;6.83;;;6.33;;
15952;SDS011;8075;47.766;8.846;2022-07-24T12:13:49;6.22;;;5.70;;
15952;SDS011;8075;47.766;8.846;2022-07-24T12:16:27;6.32;;;5.90;;
15952;SDS011;8075;47.766;8.846;2022-07-24T12:19:10;6.82;;;6.25;;
15952;SDS011;8075;47.766;8.846;2022-07-24T12:21:36;5.70;;;5.30;;
15952;SDS011;8075;47.766;8.846;2022-07-24T12:24:02;6.18;;;5.65;;
15952;SDS011;8075;47.766;8.846;2022-07-24T12:26:31;5.85;;;5.45;;
15952;SDS011;8075;47.766;8.846;2022-07-24T12:29:10;5.47;;;5.07;;
15952;SDS011;8075;47.766;8.846;2022-07-24T12:31:37;5.50;;;5.10;;
15952;SDS011;8075;47.766;8.846;2022-07-24T12:34:03;5.80;;;5.40;;
15952;SDS011;8075;47.766;8.846;2022-07-24T12:36:29;5.88;;;5.47;;
15952;SDS011;8075;47.766;8.846;2022-07-24T12:38:56;5.70;;;5.30;;
15952;SDS011;8075;47.766;8.846;2022-07-24T12:41:23;5.80;;;5.30;;
15952;SDS011;8075;47.766;8.846;2022-07-24T12:44:00;6.55;;;4.80;;
15952;SDS011;8075;47.766;8.846;2022-07-24T12:46:40;5.97;;;5.37;;
15952;SDS011;8075;47.766;8.846;2022-07-24T12:54:18;6.38;;;5.88;;
15952;SDS011;8075;47.766;8.846;2022-07-24T12:56:44;5.50;;;5.10;;
15952;SDS011;8075;47.766;8.846;2022-07-24T13:01:56;6.07;;;5.53;;
15952;SDS011;8075;47.766;8.846;2022-07-24T13:04:23;5.10;;;4.70;;
15952;SDS011;8075;47.766;8.846;2022-07-24T13:06:51;5.60;;;5.10;;
15952;SDS011;8075;47.766;8.846;2022-07-24T13:09:17;5.68;;;5.28;;
15952;SDS011;8075;47.766;8.846;2022-07-24T13:11:44;5.20;;;4.80;;
15952;SDS011;8075;47.766;8.846;2022-07-24T13:14:11;5.35;;;4.95;;
15952;SDS011;8075;47.766;8.846;2022-07-24T13:16:38;5.80;;;5.28;;
15952;SDS011;8075;47.766;8.846;2022-07-24T13:19:05;5.55;;;5.15;;
15952;SDS011;8075;47.766;8.846;2022-07-24T13:21:31;5.32;;;5.03;;
15952;SDS011;8075;47.766;8.846;2022-07-24T13:23:57;5.72;;;5.32;;
15952;SDS011;8075;47.766;8.846;2022-07-24T13:26:26;5.60;;;5.20;;
15952;SDS011;8075;47.766;8.846;2022-07-24T13:28:55;5.45;;;5.05;;
15952;SDS011;8075;47.766;8.846;2022-07-24T13:31:21;5.25;;;4.95;;
15952;SDS011;8075;47.766;8.846;2022-07-24T13:33:47;5.20;;;4.90;;
15952;SDS011;8075;47.766;8.846;2022-07-24T13:36:16;5.55;;;5.15;;
15952;SDS011;8075;47.766;8.846;2022-07-24T13:38:43;5.53;;;5.13;;
15952;SDS011;8075;47.766;8.846;2022-07-24T13:41:09;5.50;;;5.10;;
15952;SDS011;8075;47.766;8.846;2022-07-24T13:43:35;5.68;;;5.18;;
15952;SDS011;8075;47.766;8.846;2022-07-24T13:46:01;5.40;;;5.00;;
15952;SDS011;8075;47.766;8.846;2022-07-24T13:48:27;5.57;;;5.17;;
15952;SDS011;8075;47.766;8.846;2022-07-24T13:50:53;5.40;;;5.00;;
15952;SDS011;8075;47.766;8.846;2022-07-24T13:53:19;5.50;;;5.00;;
15952;SDS011;8075;47.766;8.846;2022-07-24T13:55:45;5.32;;;5.03;;
15952;SDS011;8075;47.766;8.846;2022-07-24T13:58:11;5.30;;;5.00;;
15952;SDS011;8075;47.766;8.846;2022-07-24T14:00:37;5.30;;;4.88;;
15952;SDS011;8075;47.766;8.846;2022-07-24T14:03:03;5.70;;;5.30;;
15952;SDS011;8075;47.766;8.846;2022-07-24T14:05:30;5.20;;;4.80;;
15952;SDS011;8075;47.766;8.846;2022-07-24T14:07:56;5.32;;;4.93;;
15952;SDS011;8075;47.766;8.846;2022-07-24T14:10:22;5.25;;;4.88;;
15952;SDS011;8075;47.766;8.846;2022-07-24T14:12:48;5.30;;;5.00;;
15952;SDS011;8075;47.766;8.846;2022-07-24T14:15:14;5.88;;;5.47;;
15952;SDS011;8075;47.766;8.846;2022-07-24T14:17:41;5.10;;;4.80;;
15952;SDS011;8075;47.766;8.846;2022-07-24T14:20:08;5.43;;;5.03;;
15952;SDS011;8075;47.766;8.846;2022-07-24T14:22:35;5.45;;;5.05;;
15952;SDS011;8075;47.766;8.846;2022-07-24T14:25:02;5.45;;;5.00;;
15952;SDS011;8075;47.766;8.846;2022-07-24T14:27:28;5.28;;;4.97;;
15952;SDS011;8075;47.766;8.846;2022-07-24T14:29:54;5.75;;;5.32;;
15952;SDS011;8075;47.766;8.846;2022-07-24T14:32:20;5.40;;;5.00;;
15952;SDS011;8075;47.766;8.846;2022-07-24T14:34:46;5.30;;;4.90;;
15952;SDS011;8075;47.766;8.846;2022-07-24T14:37:12;5.38;;;4.97;;
15952;SDS011;8075;47.766;8.846;2022-07-24T14:39:38;5.18;;;4.78;;
15952;SDS011;8075;47.766;8.846;2022-07-24T14:42:04;5.57;;;5.18;;
15952;SDS011;8075;47.766;8.846;2022-07-24T14:44:30;5.28;;;4.95;;
15952;SDS011;8075;47.766;8.846;2022-07-24T14:46:56;5.30;;;4.90;;
15952;SDS011;8075;47.766;8.846;2022-07-24T14:49:23;5.53;;;5.13;;
15952;SDS011;8075;47.766;8.846;2022-07-24T14:51:50;5.70;;;5.30;;
15952;SDS011;8075;47.766;8.846;2022-07-24T14:54:15;5.40;;;5.00;;
15952;SDS011;8075;47.766;8.846;2022-07-24T14:56:42;5.17;;;4.80;;
15952;SDS011;8075;47.766;8.846;2022-07-24T14:59:08;5.53;;;4.95;;
15952;SDS011;8075;47.766;8.846;2022-07-24T15:01:34;5.65;;;5.18;;
15952;SDS011;8075;47.766;8.846;2022-07-24T15:04:00;5.50;;;5.00;;
15952;SDS011;8075;47.766;8.846;2022-07-24T15:06:27;5.43;;;5.03;;
15952;SDS011;8075;47.766;8.846;2022-07-24T15:08:53;5.57;;;5.10;;
15952;SDS011;8075;47.766;8.846;2022-07-24T15:11:19;5.10;;;4.80;;
15952;SDS011;8075;47.766;8.846;2022-07-24T15:13:48;5.40;;;5.10;;
15952;SDS011;8075;47.766;8.846;2022-07-24T15:16:14;5.63;;;5.13;;
15952;SDS011;8075;47.766;8.846;2022-07-24T15:18:40;5.30;;;5.00;;
15952;SDS011;8075;47.766;8.846;2022-07-24T15:21:06;5.60;;;5.10;;
15952;SDS011;8075;47.766;8.846;2022-07-24T15:23:32;5.47;;;4.97;;
15952;SDS011;8075;47.766;8.846;2022-07-24T15:25:58;5.32;;;4.97;;
15952;SDS011;8075;47.766;8.846;2022-07-24T15:28:24;5.18;;;4.78;;
15952;SDS011;8075;47.766;8.846;2022-07-24T15:30:51;5.18;;;4.82;;
15952;SDS011;8075;47.766;8.846;2022-07-24T15:33:17;5.53;;;5.10;;
15952;SDS011;8075;47.766;8.846;2022-07-24T15:35:43;5.40;;;5.00;;
15952;SDS011;8075;47.766;8.846;2022-07-24T15:38:09;5.43;;;5.03;;
15952;SDS011;8075;47.766;8.846;2022-07-24T15:40:38;5.50;;;5.00;;